Time;durP1;ratioP1;P1;durP2;ratioP2;P2;SDS_P1;SDS_P2;PMS_P1;PMS_P2;Temp;Humidity;BMP_temperature;BMP_pressure;BME280_temperature;BME280_humidity;BME280_pressure;Samples;Min_cycle;Max_cycle;Signal;HPM_P1;HPM_P2
2021/05/28 00:00:50;;;;;;;5.10;4.00;;;;;;;7.20;85.41;102279.94;6398736;23;20005;-67
2021/05/28 00:03:21;;;;;;;9.30;4.13;;;;;;;7.16;85.36;102288.81;6398380;23;20039;-68
2021/05/28 00:05:53;;;;;;;6.03;4.07;;;;;;;7.11;85.54;102287.34;6397425;23;20013;-68
2021/05/28 00:08:24;;;;;;;8.55;4.47;;;;;;;7.01;86.08;102274.75;6398489;23;20009;-68
2021/05/28 00:10:55;;;;;;;8.88;4.00;;;;;;;7.05;85.80;102281.50;6372073;23;20720;-67
2021/05/28 00:13:27;;;;;;;12.98;4.65;;;;;;;7.04;86.35;102274.56;6398454;23;20013;-68
2021/05/28 00:15:58;;;;;;;7.78;4.40;;;;;;;7.03;86.70;102283.31;6399067;22;20002;-68
2021/05/28 00:18:29;;;;;;;7.93;4.18;;;;;;;7.01;86.07;102281.72;6398205;23;20012;-68
2021/05/28 00:21:01;;;;;;;8.90;4.70;;;;;;;6.97;86.13;102286.22;6398702;23;20114;-67
2021/05/28 00:23:32;;;;;;;8.45;4.57;;;;;;;6.95;86.05;102287.22;6396866;22;20505;-68
2021/05/28 00:26:03;;;;;;;10.73;4.90;;;;;;;6.92;86.09;102289.94;6399162;23;20375;-68
2021/05/28 00:28:35;;;;;;;7.78;4.68;;;;;;;6.92;85.99;102290.78;6398006;23;20014;-68
2021/05/28 00:31:06;;;;;;;9.55;5.60;;;;;;;6.89;86.14;102284.88;6398628;23;20021;-68
2021/05/28 00:33:37;;;;;;;8.30;4.57;;;;;;;6.85;86.64;102289.38;6399138;23;20013;-68
2021/05/28 00:36:09;;;;;;;11.40;5.60;;;;;;;6.87;86.99;102281.50;6398535;23;20120;-67
2021/05/28 00:38:40;;;;;;;10.10;4.82;;;;;;;6.80;86.76;102291.38;6399165;22;20039;-67
2021/05/28 00:41:12;;;;;;;6.07;4.57;;;;;;;6.71;86.77;102279.63;6501449;22;20015;-68
2021/05/28 00:43:44;;;;;;;7.05;4.47;;;;;;;6.71;86.24;102292.63;6499751;22;20096;-67
2021/05/28 00:46:15;;;;;;;7.13;4.55;;;;;;;6.68;86.78;102287.56;6502104;22;20010;-66
2021/05/28 00:48:48;;;;;;;8.90;4.88;;;;;;;6.66;86.67;102283.31;6399389;23;20035;-68
2021/05/28 00:51:23;;;;;;;9.23;5.03;;;;;;;6.66;87.04;102284.16;6397727;23;20020;-68
2021/05/28 00:53:55;;;;;;;9.85;4.97;;;;;;;6.57;86.60;102282.81;6398267;22;20009;-68
2021/05/28 00:56:27;;;;;;;9.10;5.30;;;;;;;6.61;86.65;102287.91;6399295;22;20008;-68
2021/05/28 00:59:02;;;;;;;7.80;5.10;;;;;;;6.55;86.48;102286.41;6399147;23;20395;-68
2021/05/28 01:01:34;;;;;;;6.43;4.20;;;;;;;6.51;86.31;102292.66;6398571;23;20432;-67
2021/05/28 01:04:06;;;;;;;10.57;4.65;;;;;;;6.47;86.37;102284.16;6398323;22;20016;-68
2021/05/28 01:06:38;;;;;;;8.23;4.72;;;;;;;6.44;86.79;102288.63;6399011;23;20104;-68
2021/05/28 01:09:09;;;;;;;8.70;4.38;;;;;;;6.45;86.61;102291.19;6399043;22;20036;-68
2021/05/28 01:11:41;;;;;;;7.07;4.15;;;;;;;6.43;86.58;102285.19;6399042;22;20492;-68
2021/05/28 01:14:12;;;;;;;7.25;4.45;;;;;;;6.41;86.46;102287.03;6397871;23;20084;-68
2021/05/28 01:16:43;;;;;;;11.18;5.10;;;;;;;6.36;86.62;102285.53;6500879;22;20015;-67
2021/05/28 01:19:15;;;;;;;7.57;4.13;;;;;;;6.25;85.92;102283.41;6398955;23;20080;-67
2021/05/28 01:21:46;;;;;;;9.00;5.07;;;;;;;6.23;86.49;102286.06;6397347;23;20034;-67
2021/05/28 01:24:18;;;;;;;7.03;4.53;;;;;;;6.15;86.10;102287.34;6399174;22;20440;-68
2021/05/28 01:26:49;;;;;;;7.43;4.47;;;;;;;6.13;86.61;102294.34;6397369;23;20437;-68
2021/05/28 01:29:21;;;;;;;6.80;3.80;;;;;;;6.07;86.59;102291.09;6398305;23;20045;-68
2021/05/28 01:31:52;;;;;;;8.20;4.43;;;;;;;6.00;86.44;102294.88;6399083;22;20001;-67
2021/05/28 01:34:23;;;;;;;9.18;4.53;;;;;;;5.98;86.13;102285.44;6393808;22;20005;-67
2021/05/28 01:36:55;;;;;;;8.60;4.30;;;;;;;5.98;86.47;102285.44;6499953;22;20285;-68
2021/05/28 01:39:26;;;;;;;8.10;4.40;;;;;;;5.91;86.29;102290.03;6396139;22;20376;-67
2021/05/28 01:41:58;;;;;;;6.18;4.47;;;;;;;5.84;85.85;102292.03;6396395;23;20013;-68
2021/05/28 01:44:29;;;;;;;8.90;4.93;;;;;;;5.80;86.49;102285.28;6498901;22;20131;-68
2021/05/28 01:47:00;;;;;;;8.07;4.70;;;;;;;5.79;86.62;102285.31;6396654;23;20289;-68
2021/05/28 01:49:32;;;;;;;7.13;4.07;;;;;;;5.79;86.39;102280.97;6397761;23;20154;-67
2021/05/28 01:52:03;;;;;;;6.20;3.97;;;;;;;5.73;85.79;102283.00;6398900;23;20013;-68
2021/05/28 01:54:37;;;;;;;6.22;3.95;;;;;;;5.73;86.05;102288.19;6398902;22;20005;-68
2021/05/28 01:57:12;;;;;;;6.72;4.63;;;;;;;5.56;86.63;102266.31;6398333;23;20005;-68
2021/05/28 01:59:44;;;;;;;8.75;4.78;;;;;;;5.67;86.08;102289.28;6398647;22;20205;-67
2021/05/28 02:02:16;;;;;;;6.05;4.10;;;;;;;5.68;86.08;102292.72;6396280;23;20322;-67
2021/05/28 02:04:47;;;;;;;6.72;4.78;;;;;;;5.60;86.12;102283.47;6397562;23;20104;-68
2021/05/28 02:07:18;;;;;;;6.53;4.78;;;;;;;5.63;86.87;102290.31;6395654;23;20063;-68
2021/05/28 02:09:50;;;;;;;9.38;4.45;;;;;;;5.56;86.82;102288.88;6397726;23;20016;-67
2021/05/28 02:12:22;;;;;;;7.95;4.25;;;;;;;5.53;86.69;102284.66;6398182;23;20016;-68
2021/05/28 02:14:57;;;;;;;9.07;4.85;;;;;;;5.58;86.01;102293.13;6397844;23;20036;-68
2021/05/28 02:17:29;;;;;;;9.18;4.82;;;;;;;5.49;86.12;102298.69;6395980;23;20006;-68
2021/05/28 02:20:01;;;;;;;7.18;4.57;;;;;;;5.44;86.76;102297.16;6398085;23;20008;-68
2021/05/28 02:22:32;;;;;;;7.35;4.57;;;;;;;5.43;86.43;102303.28;6397071;23;20440;-67
2021/05/28 02:25:05;;;;;;;8.38;5.38;;;;;;;5.45;86.82;102301.47;6397497;23;20010;-68
2021/05/28 02:27:37;;;;;;;;;;;;;;;5.69;85.63;102291.84;6398486;23;20017;-67
2021/05/28 02:30:09;;;;;;;9.50;5.20;;;;;;;5.41;87.04;102300.72;6398784;23;19904;-68
2021/05/28 02:32:41;;;;;;;10.15;5.30;;;;;;;5.37;86.79;102299.16;6397352;23;20240;-67
2021/05/28 02:35:13;;;;;;;6.47;4.95;;;;;;;5.34;86.94;102301.88;6397963;22;20373;-68
2021/05/28 02:37:44;;;;;;;7.55;4.72;;;;;;;5.24;86.49;102303.16;6396855;23;20512;-67
2021/05/28 02:40:16;;;;;;;7.97;5.22;;;;;;;5.24;86.39;102305.75;6396375;23;20005;-68
2021/05/28 02:42:47;;;;;;;7.22;5.10;;;;;;;5.14;86.80;102300.06;6397536;23;20005;-67
2021/05/28 02:45:19;;;;;;;7.78;5.05;;;;;;;5.22;86.55;102317.94;6398523;23;20089;-67
2021/05/28 02:47:50;;;;;;;7.85;4.57;;;;;;;5.22;86.85;102317.94;6399710;22;20006;-68
2021/05/28 02:50:21;;;;;;;6.05;4.40;;;;;;;5.23;87.32;102324.88;6399153;23;20391;-68
2021/05/28 02:52:52;;;;;;;6.80;4.80;;;;;;;5.18;87.19;102325.03;6398554;23;20107;-67
2021/05/28 02:55:24;;;;;;;9.25;4.93;;;;;;;5.16;87.17;102329.44;6399471;23;19997;-66
2021/05/28 02:57:56;;;;;;;7.30;5.05;;;;;;;5.12;87.22;102333.91;6398400;23;20092;-67
2021/05/28 03:00:27;;;;;;;7.03;5.13;;;;;;;5.22;87.53;102325.75;6502031;22;20471;-68
2021/05/28 03:02:58;;;;;;;8.07;5.57;;;;;;;5.29;88.69;102333.25;6398830;23;20010;-67
2021/05/28 03:05:30;;;;;;;12.27;6.72;;;;;;;5.31;88.44;102338.41;6398519;23;20035;-68
2021/05/28 03:08:01;;;;;;;8.40;6.80;;;;;;;5.33;88.18;102342.63;6399959;22;20005;-68
2021/05/28 03:10:32;;;;;;;12.75;8.48;;;;;;;5.37;89.28;102346.78;6399067;23;20009;-68
2021/05/28 03:13:03;;;;;;;12.13;9.02;;;;;;;5.45;89.69;102343.03;6398011;23;20157;-67
2021/05/28 03:15:35;;;;;;;13.27;8.65;;;;;;;5.53;89.38;102341.84;6502014;22;20063;-67
2021/05/28 03:18:14;;;;;;;11.00;9.00;;;;;;;5.58;90.55;102344.25;6399149;22;20005;-67
2021/05/28 03:20:48;;;;;;;15.48;9.10;;;;;;;5.67;90.20;102348.25;6398146;23;20415;-67
2021/05/28 03:23:19;;;;;;;13.63;9.70;;;;;;;5.66;89.89;102350.00;6398024;23;20066;-67
2021/05/28 03:25:50;;;;;;;15.05;10.82;;;;;;;5.67;90.16;102351.69;6398639;23;20391;-67
2021/05/28 03:28:22;;;;;;;13.57;10.10;;;;;;;5.71;90.07;102350.66;6399362;23;20024;-68
2021/05/28 03:30:53;;;;;;;15.70;10.73;;;;;;;5.81;90.90;102349.38;6399092;22;20092;-67
2021/05/28 03:33:24;;;;;;;18.23;9.63;;;;;;;5.81;90.67;102354.59;6398497;22;19998;-67
2021/05/28 03:35:55;;;;;;;17.40;10.43;;;;;;;5.90;90.96;102353.34;6397826;23;20006;-67
2021/05/28 03:38:27;;;;;;;18.83;11.68;;;;;;;5.91;91.33;102347.25;6399238;22;20886;-67
2021/05/28 03:40:58;;;;;;;22.10;12.02;;;;;;;5.97;91.13;102354.00;6399849;23;20081;-68
2021/05/28 03:43:30;;;;;;;19.80;10.27;;;;;;;6.04;91.25;102353.66;6501976;22;20013;-67
2021/05/28 03:46:03;;;;;;;20.23;12.48;;;;;;;6.13;91.64;102356.78;6398278;23;20012;-67
2021/05/28 03:48:34;;;;;;;23.60;11.82;;;;;;;6.17;91.39;102359.19;6398739;23;20005;-68
2021/05/28 03:51:06;;;;;;;23.50;11.75;;;;;;;6.21;91.63;102362.50;6399307;22;20314;-68
2021/05/28 03:53:37;;;;;;;20.40;11.50;;;;;;;6.27;91.64;102362.28;6398289;22;20014;-67
2021/05/28 03:56:08;;;;;;;30.45;13.23;;;;;;;6.31;92.07;102363.81;6500108;22;20013;-67
2021/05/28 03:58:40;;;;;;;21.98;12.13;;;;;;;6.37;91.68;102363.59;6393235;22;20596;-68
2021/05/28 04:01:11;;;;;;;34.28;14.57;;;;;;;6.35;91.98;102352.38;6496708;22;20420;-68
2021/05/28 04:03:42;;;;;;;36.15;14.48;;;;;;;6.42;92.48;102356.41;6398293;23;20012;-68
2021/05/28 04:06:13;;;;;;;29.00;13.38;;;;;;;6.43;92.37;102365.06;6397239;22;20074;-67
2021/05/28 04:08:45;;;;;;;36.80;13.85;;;;;;;6.52;92.63;102357.72;6394935;22;20024;-66
2021/05/28 04:11:17;;;;;;;26.20;14.25;;;;;;;6.54;93.08;102358.47;6398946;22;20059;-66
2021/05/28 04:13:48;;;;;;;37.40;15.15;;;;;;;6.60;92.69;102367.78;6399162;23;20012;-66
2021/05/28 04:16:20;;;;;;;35.10;14.68;;;;;;;6.63;93.28;102369.41;6399636;23;20005;-65
2021/05/28 04:18:51;;;;;;;30.02;14.18;;;;;;;6.67;92.82;102373.59;6398034;22;20005;-66
2021/05/28 04:21:22;;;;;;;34.50;16.05;;;;;;;6.70;93.01;102378.63;6397514;23;20012;-66
2021/05/28 04:23:55;;;;;;;39.67;14.57;;;;;;;6.76;93.77;102378.38;6398995;23;20017;-66
2021/05/28 04:26:27;;;;;;;34.67;14.02;;;;;;;6.77;93.62;102382.66;6398803;23;20024;-66
2021/05/28 04:28:58;;;;;;;36.47;14.48;;;;;;;6.80;94.10;102378.16;6397876;22;20082;-69
2021/05/28 04:31:29;;;;;;;33.95;14.93;;;;;;;6.89;94.22;102386.47;6399156;22;20001;-66
2021/05/28 04:34:00;;;;;;;28.35;14.50;;;;;;;6.93;93.65;102380.22;6397397;22;20016;-66
2021/05/28 04:36:32;;;;;;;35.10;14.45;;;;;;;6.95;93.78;102384.44;6399542;22;20004;-66
2021/05/28 04:39:04;;;;;;;27.70;14.40;;;;;;;7.04;94.35;102383.19;6398624;22;20070;-67
2021/05/28 04:41:35;;;;;;;40.33;15.27;;;;;;;7.04;93.98;102383.19;6398654;23;20009;-67
2021/05/28 04:44:07;;;;;;;31.20;15.25;;;;;;;7.11;94.50;102388.97;6398802;23;20005;-67
2021/05/28 04:46:38;;;;;;;29.05;15.02;;;;;;;7.12;94.42;102388.03;6500896;22;20072;-66
2021/05/28 04:49:09;;;;;;;43.95;15.07;;;;;;;7.16;94.57;102385.25;6398113;22;20001;-66
2021/05/28 04:51:41;;;;;;;31.05;16.08;;;;;;;7.23;95.04;102391.00;6398461;22;20112;-67
2021/05/28 04:54:12;;;;;;;32.88;15.65;;;;;;;7.27;95.04;102387.34;6398354;22;20013;-66
2021/05/28 04:56:43;;;;;;;29.92;15.82;;;;;;;7.30;94.87;102384.59;6502093;22;20001;-67
2021/05/28 04:59:15;;;;;;;45.55;17.92;;;;;;;7.39;95.56;102389.41;6398764;23;20081;-67
2021/05/28 05:01:46;;;;;;;38.60;16.98;;;;;;;7.42;95.50;102393.59;6497072;22;20029;-66
2021/05/28 05:04:17;;;;;;;38.92;17.70;;;;;;;7.46;95.84;102398.63;6398638;23;20016;-67
2021/05/28 05:06:49;;;;;;;34.85;17.95;;;;;;;7.50;96.07;102392.34;6398167;22;20479;-67
2021/05/28 05:09:20;;;;;;;42.72;17.65;;;;;;;7.55;96.00;102402.56;6398299;22;20421;-67
2021/05/28 05:11:51;;;;;;;34.78;17.67;;;;;;;7.58;96.07;102402.44;6397338;22;20435;-66
2021/05/28 05:14:22;;;;;;;38.38;18.20;;;;;;;7.65;96.31;102398.63;6397445;22;20333;-67
2021/05/28 05:16:54;;;;;;;39.13;18.67;;;;;;;7.67;95.36;102404.59;6399100;22;20002;-67
2021/05/28 05:19:25;;;;;;;25.30;17.25;;;;;;;7.73;95.64;102401.69;6398277;23;20024;-66
2021/05/28 05:21:56;;;;;;;26.92;17.45;;;;;;;7.73;95.39;102412.13;6398337;22;20005;-67
2021/05/28 05:24:27;;;;;;;28.73;17.42;;;;;;;7.79;97.87;102413.59;6398421;22;20005;-66
2021/05/28 05:26:59;;;;;;;22.77;16.30;;;;;;;7.77;95.12;102407.63;6398317;22;20005;-67
2021/05/28 05:29:30;;;;;;;20.00;14.48;;;;;;;7.79;94.72;102411.81;6398403;22;20334;-67
2021/05/28 05:32:02;;;;;;;24.35;14.23;;;;;;;7.78;94.65;102411.91;6398586;23;20013;-66
2021/05/28 05:34:33;;;;;;;22.58;15.57;;;;;;;7.83;94.83;102414.28;6398375;23;20428;-66
2021/05/28 05:37:05;;;;;;;32.22;17.55;;;;;;;7.84;94.23;102424.66;6398322;23;20010;-67
2021/05/28 05:39:36;;;;;;;26.48;16.00;;;;;;;7.89;94.71;102422.66;6399191;22;20446;-67
2021/05/28 05:42:07;;;;;;;27.25;16.35;;;;;;;7.91;94.80;102428.66;6399865;22;20409;-67
2021/05/28 05:44:39;;;;;;;26.20;17.75;;;;;;;7.99;94.96;102428.28;6398136;23;20081;-66
2021/05/28 05:47:10;;;;;;;21.08;14.98;;;;;;;8.01;94.50;102434.28;6398230;22;20010;-67
2021/05/28 05:49:41;;;;;;;22.40;15.60;;;;;;;8.02;94.41;102441.19;6501207;22;20010;-67
2021/05/28 05:52:13;;;;;;;22.00;14.70;;;;;;;8.09;94.29;102436.50;6399108;22;20449;-66
2021/05/28 05:54:44;;;;;;;21.67;15.82;;;;;;;8.14;94.56;102437.13;6398710;22;20078;-67
2021/05/28 05:57:15;;;;;;;19.80;15.75;;;;;;;8.24;93.84;102443.59;6398601;23;20448;-67
2021/05/28 05:59:46;;;;;;;22.15;15.88;;;;;;;8.35;93.72;102450.91;6397195;23;20040;-66
2021/05/28 06:02:18;;;;;;;22.52;15.95;;;;;;;8.43;93.42;102452.22;6398804;22;20089;-66
2021/05/28 06:04:49;;;;;;;18.70;14.80;;;;;;;8.46;92.86;102446.88;6398648;22;20001;-66
2021/05/28 06:07:20;;;;;;;19.95;15.65;;;;;;;8.55;92.71;102449.94;6398285;22;20016;-67
2021/05/28 06:09:52;;;;;;;19.48;14.88;;;;;;;8.51;91.87;102449.22;6397218;23;20009;-67
2021/05/28 06:12:23;;;;;;;20.50;15.00;;;;;;;8.61;92.12;102447.84;6398254;22;20005;-66
2021/05/28 06:14:55;;;;;;;18.58;14.73;;;;;;;8.67;91.89;102447.53;6398549;23;20448;-67
2021/05/28 06:17:26;;;;;;;19.77;14.95;;;;;;;8.73;91.03;102452.44;6395423;23;20012;-67
2021/05/28 06:19:57;;;;;;;18.15;15.50;;;;;;;8.83;91.39;102449.38;6393320;22;20010;-67
2021/05/28 06:25:57;;;;;;;17.10;14.07;;;;;;;8.80;90.52;102458.22;6389301;22;20088;-67
2021/05/28 06:28:28;;;;;;;23.10;14.88;;;;;;;8.97;90.83;102454.72;6395539;22;20427;-66
2021/05/28 06:30:59;;;;;;;19.00;13.85;;;;;;;8.96;90.06;102460.88;6393205;22;20010;-67
2021/05/28 06:33:31;;;;;;;18.25;13.32;;;;;;;9.00;89.48;102457.16;6396467;22;20426;-67
2021/05/28 06:36:02;;;;;;;24.17;15.07;;;;;;;9.10;89.10;102461.00;6396725;23;20455;-67
2021/05/28 06:38:34;;;;;;;20.10;14.30;;;;;;;9.14;89.05;102461.69;6397195;22;20005;-67
2021/05/28 06:41:05;;;;;;;17.33;13.60;;;;;;;9.17;88.50;102461.53;6395992;23;20033;-67
2021/05/28 06:43:36;;;;;;;17.30;12.60;;;;;;;9.20;88.28;102458.72;6396970;23;20033;-67
2021/05/28 06:46:08;;;;;;;16.38;14.07;;;;;;;9.24;88.46;102455.03;6397153;22;20010;-67
2021/05/28 06:48:39;;;;;;;15.82;12.48;;;;;;;9.32;88.18;102460.72;6396745;23;20428;-67
2021/05/28 06:51:11;;;;;;;14.20;12.70;;;;;;;9.42;88.03;102464.50;6397171;23;20055;-68
2021/05/28 06:53:43;;;;;;;16.33;12.60;;;;;;;9.37;87.09;102460.47;6394784;22;20337;-67
2021/05/28 06:56:14;;;;;;;14.95;12.55;;;;;;;9.43;87.35;102468.81;6392816;22;20002;-68
2021/05/28 06:58:50;;;;;;;16.58;13.13;;;;;;;9.61;87.81;102466.97;6396209;22;20009;-67
2021/05/28 07:01:21;;;;;;;17.20;13.68;;;;;;;9.68;86.85;102475.31;6397201;23;20407;-67
2021/05/28 07:03:53;;;;;;;18.67;12.85;;;;;;;9.82;87.16;102472.78;6397399;23;20014;-68
2021/05/28 07:06:24;;;;;;;16.10;13.40;;;;;;;9.92;86.39;102471.31;6396887;23;20010;-67
2021/05/28 07:08:56;;;;;;;21.55;15.70;;;;;;;10.18;85.78;102471.63;6395605;22;20013;-67
2021/05/28 07:11:28;;;;;;;19.45;17.38;;;;;;;10.25;85.23;102473.00;6397211;23;20376;-67
2021/05/28 07:13:59;;;;;;;18.75;16.85;;;;;;;10.22;84.15;102470.53;6396887;22;20005;-68
2021/05/28 07:16:33;;;;;;;21.63;19.30;;;;;;;10.22;84.84;102475.78;6397655;23;20024;-68
2021/05/28 07:19:04;;;;;;;21.77;18.80;;;;;;;9.98;83.26;102484.09;6396057;23;20010;-67
2021/05/28 07:21:35;;;;;;;21.98;19.65;;;;;;;10.15;84.69;102480.53;6499646;22;20591;-68
2021/05/28 07:24:07;;;;;;;23.27;20.13;;;;;;;10.42;83.83;102474.69;6397135;22;20078;-68
2021/05/28 07:26:38;;;;;;;22.83;19.88;;;;;;;10.40;83.26;102485.22;6398171;22;20012;-67
2021/05/28 07:29:10;;;;;;;24.63;19.92;;;;;;;10.59;84.24;102485.00;6396991;22;20352;-67
2021/05/28 07:31:41;;;;;;;21.40;17.70;;;;;;;10.76;82.66;102480.53;6395176;22;20094;-68
2021/05/28 07:34:12;;;;;;;19.58;17.52;;;;;;;10.96;82.82;102491.53;6398263;23;20451;-68
2021/05/28 07:36:44;;;;;;;19.08;17.02;;;;;;;11.09;82.52;102488.16;6398316;22;20010;-67
2021/05/28 07:39:16;;;;;;;17.13;15.32;;;;;;;11.22;80.41;102491.75;6398631;22;20005;-68
2021/05/28 07:41:47;;;;;;;17.43;15.63;;;;;;;11.40;81.04;102487.97;6397932;23;20307;-67
2021/05/28 07:44:19;;;;;;;18.08;15.38;;;;;;;11.57;81.52;102488.69;6396671;22;20013;-67
2021/05/28 07:46:50;;;;;;;18.58;16.65;;;;;;;11.55;80.42;102491.41;6398447;23;20013;-67
2021/05/28 07:49:22;;;;;;;20.25;18.05;;;;;;;11.40;80.20;102487.13;6398526;23;20014;-68
2021/05/28 07:51:53;;;;;;;32.90;20.80;;;;;;;11.38;79.88;102491.63;6397777;23;20002;-68
2021/05/28 07:54:25;;;;;;;18.60;16.55;;;;;;;11.58;80.25;102487.75;6397497;22;20009;-69
2021/05/28 07:56:56;;;;;;;18.98;16.63;;;;;;;11.65;80.41;102487.28;6397558;23;20005;-68
2021/05/28 07:59:27;;;;;;;23.55;17.73;;;;;;;11.73;78.83;102483.31;6500775;22;20086;-68
2021/05/28 08:01:59;;;;;;;22.27;19.20;;;;;;;11.98;79.21;102480.84;6499529;22;20001;-68
2021/05/28 08:04:30;;;;;;;20.48;18.02;;;;;;;12.06;78.41;102481.19;6398112;23;20458;-68
2021/05/28 08:07:01;;;;;;;22.33;17.48;;;;;;;12.20;78.44;102472.41;6500940;22;20462;-68
2021/05/28 08:09:33;;;;;;;23.20;17.58;;;;;;;12.33;76.87;102475.91;6398430;23;20020;-68
2021/05/28 08:12:05;;;;;;;22.55;18.20;;;;;;;12.53;77.02;102476.34;6399227;22;20006;-69
2021/05/28 08:14:36;;;;;;;27.58;21.13;;;;;;;12.57;75.64;102480.47;6499577;22;20059;-68
2021/05/28 08:17:08;;;;;;;22.85;18.90;;;;;;;12.82;75.81;102472.59;6398043;22;19998;-68
2021/05/28 08:19:39;;;;;;;23.88;19.42;;;;;;;12.90;75.19;102466.81;6397410;23;20441;-68
2021/05/28 08:22:11;;;;;;;22.00;18.75;;;;;;;13.01;74.09;102474.81;6501531;22;20335;-68
2021/05/28 08:24:42;;;;;;;20.80;18.23;;;;;;;13.14;74.33;102467.78;6500073;22;20001;-68
2021/05/28 08:27:13;;;;;;;20.27;17.88;;;;;;;13.33;74.62;102470.00;6397877;23;20006;-67
2021/05/28 08:29:44;;;;;;;19.58;17.48;;;;;;;13.45;74.00;102470.03;6395742;23;20014;-68
2021/05/28 08:32:16;;;;;;;20.92;17.27;;;;;;;13.49;73.21;102458.38;6501128;22;20012;-68
2021/05/28 08:34:47;;;;;;;20.17;16.25;;;;;;;13.80;74.19;102459.63;6398629;22;20013;-69
2021/05/28 08:37:18;;;;;;;20.90;17.58;;;;;;;13.85;72.61;102454.84;6398133;23;20001;-68
2021/05/28 08:39:50;;;;;;;18.80;16.67;;;;;;;13.81;72.65;102462.13;6398055;22;20013;-68
2021/05/28 08:42:21;;;;;;;19.23;16.08;;;;;;;14.04;71.74;102451.69;6397391;22;20009;-68
2021/05/28 08:44:52;;;;;;;19.05;16.33;;;;;;;14.15;70.57;102461.47;6396700;22;20012;-68
2021/05/28 08:47:24;;;;;;;19.10;17.08;;;;;;;14.22;71.70;102463.53;6395348;23;20005;-69
2021/05/28 08:49:59;;;;;;;17.05;15.25;;;;;;;14.35;70.77;102474.81;6397856;23;20033;-68
2021/05/28 08:52:31;;;;;;;16.85;15.05;;;;;;;14.25;69.68;102468.56;6396328;23;20008;-68
2021/05/28 08:55:04;;;;;;;17.58;15.00;;;;;;;14.32;70.20;102472.44;6397046;23;20343;-68
2021/05/28 08:57:35;;;;;;;17.73;15.88;;;;;;;14.39;70.31;102464.88;6397245;23;20002;-68
2021/05/28 09:00:07;;;;;;;21.50;16.15;;;;;;;14.66;70.43;102462.00;6397195;22;20044;-68
2021/05/28 09:02:40;;;;;;;19.42;14.80;;;;;;;14.50;68.22;102456.19;6398153;23;20013;-68
2021/05/28 09:05:16;;;;;;;16.25;14.43;;;;;;;14.79;69.57;102453.97;6500533;22;20013;-68
2021/05/28 09:07:58;;;;;;;16.10;13.77;;;;;;;15.05;69.09;102467.81;6397342;23;20463;-69
2021/05/28 09:10:35;;;;;;;17.30;14.18;;;;;;;15.00;68.58;102462.03;6390975;23;20066;-68
2021/05/28 09:13:17;;;;;;;15.13;12.82;;;;;;;14.82;68.28;102454.59;6394145;23;20089;-68
2021/05/28 09:16:02;;;;;;;16.67;13.88;;;;;;;14.97;68.31;102452.56;6394404;23;20001;-68
2021/05/28 09:18:45;;;;;;;14.45;11.95;;;;;;;15.13;66.95;102446.09;6397349;23;20061;-69
2021/05/28 09:21:28;;;;;;;12.32;10.63;;;;;;;15.26;66.57;102441.50;6500064;22;20006;-68
2021/05/28 09:24:00;;;;;;;9.55;8.63;;;;;;;15.35;64.31;102442.59;6398541;22;20340;-69
2021/05/28 09:26:34;;;;;;;11.82;10.32;;;;;;;15.29;65.57;102439.47;6397720;22;20016;-69
2021/05/28 09:29:07;;;;;;;11.65;10.02;;;;;;;15.19;64.00;102445.59;6395923;23;20021;-68
2021/05/28 09:31:38;;;;;;;13.88;10.90;;;;;;;15.41;64.10;102448.19;6397498;23;20001;-69
2021/05/28 09:34:09;;;;;;;11.68;10.20;;;;;;;15.35;64.74;102446.06;6398075;22;20009;-69
2021/05/28 09:36:40;;;;;;;11.55;9.93;;;;;;;15.47;65.11;102450.38;6397562;22;20009;-69
2021/05/28 09:39:14;;;;;;;10.35;9.35;;;;;;;15.69;63.70;102451.31;6498479;22;20016;-68
2021/05/28 09:41:56;;;;;;;11.13;9.25;;;;;;;15.90;64.13;102448.72;6396170;22;20005;-69
2021/05/28 09:44:30;;;;;;;8.50;7.33;;;;;;;15.87;62.85;102446.31;6498341;22;20002;-69
2021/05/28 09:47:05;;;;;;;10.40;6.78;;;;;;;16.01;64.13;102448.66;6396820;22;20493;-69
2021/05/28 09:49:45;;;;;;;9.55;7.75;;;;;;;15.94;62.99;102439.56;6498769;22;20467;-69
2021/05/28 09:52:28;;;;;;;7.60;6.32;;;;;;;16.52;63.22;102438.19;6397659;22;20040;-69
2021/05/28 09:55:08;;;;;;;7.13;5.57;;;;;;;16.58;61.12;102431.53;6396323;23;20010;-69
2021/05/28 09:57:40;;;;;;;7.32;5.35;;;;;;;16.50;61.42;102436.63;6396259;23;20055;-69
2021/05/28 10:00:22;;;;;;;9.87;5.20;;;;;;;16.58;61.17;102426.25;6396592;22;20006;-69
2021/05/28 10:03:18;;;;;;;8.70;5.28;;;;;;;16.61;60.82;102427.78;6394093;23;20005;-70
2021/05/28 10:05:52;;;;;;;5.88;4.60;;;;;;;16.78;58.16;102414.84;6396508;22;20006;-69
2021/05/28 10:08:26;;;;;;;6.03;4.80;;;;;;;16.85;60.04;102415.13;6396270;23;20063;-69
2021/05/28 10:10:58;;;;;;;8.20;5.30;;;;;;;17.16;58.31;102420.38;6397440;22;20013;-69
2021/05/28 10:13:29;;;;;;;5.40;4.43;;;;;;;17.16;58.40;102409.78;6395230;23;20035;-68
2021/05/28 10:16:01;;;;;;;5.47;4.60;;;;;;;17.25;57.32;102415.13;6394370;23;20391;-69
2021/05/28 10:18:32;;;;;;;6.40;4.47;;;;;;;17.16;55.83;102420.38;6397315;23;20005;-69
2021/05/28 10:21:04;;;;;;;4.40;4.00;;;;;;;17.34;55.87;102408.16;6397767;23;20022;-68
2021/05/28 10:23:36;;;;;;;5.63;4.68;;;;;;;17.30;55.34;102411.22;6397329;22;20028;-68
2021/05/28 10:26:07;;;;;;;4.93;4.43;;;;;;;17.45;55.46;102408.06;6396498;23;20033;-68
2021/05/28 10:28:46;;;;;;;5.82;4.28;;;;;;;17.73;58.59;102409.06;6397242;22;20093;-68
2021/05/28 10:31:18;;;;;;;5.15;4.22;;;;;;;17.81;57.12;102412.88;6393849;22;20010;-69
2021/05/28 10:33:53;;;;;;;5.68;5.07;;;;;;;17.72;56.33;102415.34;6397608;22;20005;-69
2021/05/28 10:36:41;;;;;;;5.93;4.90;;;;;;;17.77;55.91;102408.81;6397173;22;20328;-69
2021/05/28 10:39:15;;;;;;;4.82;4.32;;;;;;;17.65;56.58;102408.06;6396501;23;20013;-69
2021/05/28 10:41:57;;;;;;;5.32;4.40;;;;;;;17.63;55.97;102412.69;6397648;23;20017;-69
2021/05/28 10:44:40;;;;;;;6.75;5.07;;;;;;;17.66;57.04;102405.31;6499143;22;20021;-68
2021/05/28 10:47:11;;;;;;;;;;;;;;;18.01;58.18;102401.28;6396199;23;20006;-69
2021/05/28 10:49:50;;;;;;;7.18;4.47;;;;;;;17.71;54.83;102400.41;6395924;23;20351;-68
2021/05/28 10:52:35;;;;;;;7.47;4.90;;;;;;;17.65;56.76;102402.78;6398301;22;20429;-68
2021/05/28 10:55:09;;;;;;;5.03;4.50;;;;;;;17.51;54.73;102401.38;6499817;22;20013;-67
2021/05/28 10:57:48;;;;;;;6.07;4.78;;;;;;;17.75;55.08;102407.13;6395744;22;20040;-68
2021/05/28 11:00:30;;;;;;;6.57;5.13;;;;;;;17.91;54.56;102403.94;6396208;23;20074;-68
2021/05/28 11:03:12;;;;;;;6.82;5.38;;;;;;;17.95;55.55;102404.47;6393316;23;20002;-69
2021/05/28 11:05:47;;;;;;;5.55;4.60;;;;;;;18.07;54.65;102399.88;6498353;22;20267;-68
2021/05/28 11:08:43;;;;;;;6.20;5.60;;;;;;;18.36;55.08;102398.00;6397679;23;20014;-69
2021/05/28 11:11:36;;;;;;;6.25;5.60;;;;;;;18.41;54.32;102400.22;6398233;22;20001;-68
2021/05/28 11:14:12;;;;;;;6.00;4.85;;;;;;;18.74;52.64;102396.25;6499785;22;20098;-68
2021/05/28 11:16:52;;;;;;;6.35;5.13;;;;;;;18.88;53.13;102392.28;6397296;23;20059;-68
2021/05/28 11:19:40;;;;;;;5.30;4.80;;;;;;;19.17;51.99;102389.50;6397724;23;20026;-68
2021/05/28 11:22:15;;;;;;;5.20;3.40;;;;;;;19.07;47.72;102389.53;6398049;22;20091;-68
2021/05/28 11:24:47;;;;;;;8.90;3.15;;;;;;;19.14;48.11;102382.63;6397822;23;20486;-69
2021/05/28 11:27:25;;;;;;;6.60;4.57;;;;;;;19.29;50.14;102380.31;6500472;22;20013;-68
2021/05/28 11:30:02;;;;;;;4.80;4.28;;;;;;;19.04;50.03;102387.16;6396292;22;20036;-68
2021/05/28 11:32:35;;;;;;;6.28;4.68;;;;;;;18.89;50.46;102376.19;6398295;23;20005;-69
2021/05/28 11:35:15;;;;;;;5.55;4.30;;;;;;;19.50;50.73;102381.84;6397925;23;20055;-69
2021/05/28 11:37:52;;;;;;;4.40;3.08;;;;;;;19.40;45.77;102377.44;6393710;23;20006;-68
2021/05/28 11:40:26;;;;;;;5.38;3.80;;;;;;;19.43;45.44;102374.50;6397257;23;20208;-68
2021/05/28 11:43:12;;;;;;;5.50;3.80;;;;;;;19.52;47.18;102375.38;6393748;22;20009;-68
2021/05/28 11:45:52;;;;;;;6.75;4.28;;;;;;;19.40;47.56;102379.25;6393576;23;20082;-69
2021/05/28 11:48:25;;;;;;;5.97;3.92;;;;;;;19.22;46.42;102371.25;6396412;22;20020;-68
2021/05/28 11:50:57;;;;;;;;;;;;;;;19.74;49.30;102368.81;6398255;23;20010;-69